Time;durP1;ratioP1;P1;durP2;ratioP2;P2;SDS_P1;SDS_P2;PMS_P1;PMS_P2;Temp;Humidity;BMP_temperature;BMP_pressure;BME280_temperature;BME280_humidity;BME280_pressure;Samples;Min_cycle;Max_cycle;Signal;HPM_P1;HPM_P2
2022/11/14 00:01:26;;;;;;;30.83;17.83;;;10.70;91.00;;;;;;5063393;28;20226;-80
2022/11/14 00:03:56;;;;;;;30.30;18.30;;;10.70;90.80;;;;;;5065776;28;20360;-80
2022/11/14 00:06:24;;;;;;;26.40;16.43;;;10.70;90.80;;;;;;5070311;28;20655;-79
2022/11/14 00:08:52;;;;;;;28.00;16.57;;;10.70;90.80;;;;;;5070043;28;20198;-78
2022/11/14 00:11:21;;;;;;;30.33;17.13;;;10.70;90.80;;;;;;5074692;28;20252;-80
2022/11/14 00:13:49;;;;;;;33.63;19.35;;;10.80;90.70;;;;;;5063943;28;20477;-80
2022/11/14 00:16:17;;;;;;;34.20;18.63;;;10.80;90.80;;;;;;5067832;28;20294;-80
2022/11/14 00:18:45;;;;;;;35.37;17.80;;;10.80;90.70;;;;;;5066741;28;20265;-80
2022/11/14 00:21:15;;;;;;;38.70;18.60;;;10.80;90.60;;;;;;5064821;28;20635;-78
2022/11/14 00:23:43;;;;;;;41.20;17.50;;;10.80;90.40;;;;;;5067477;28;20663;-79
2022/11/14 00:26:12;;;;;;;29.27;17.08;;;10.70;90.30;;;;;;5067492;28;20478;-79
2022/11/14 00:28:40;;;;;;;33.17;17.23;;;10.70;90.20;;;;;;5066581;28;20202;-79
2022/11/14 00:31:09;;;;;;;32.97;16.90;;;10.70;90.20;;;;;;5065983;28;20230;-80
2022/11/14 00:33:38;;;;;;;30.00;15.83;;;10.70;90.20;;;;;;5068135;28;20233;-79
2022/11/14 00:36:06;;;;;;;27.87;14.43;;;10.70;90.20;;;;;;5065477;28;20930;-80
2022/11/14 00:38:36;;;;;;;36.00;16.27;;;10.70;90.20;;;;;;5067309;28;20227;-78
2022/11/14 00:41:04;;;;;;;25.95;16.35;;;10.70;90.20;;;;;;5066096;28;20932;-78
2022/11/14 00:43:32;;;;;;;28.00;15.47;;;10.60;90.30;;;;;;5067860;28;20194;-79
2022/11/14 00:46:01;;;;;;;27.33;14.17;;;10.70;90.40;;;;;;5067595;28;20190;-79
2022/11/14 00:48:29;;;;;;;25.83;15.17;;;10.60;90.30;;;;;;5065444;28;20199;-80
2022/11/14 00:50:58;;;;;;;41.33;16.07;;;10.60;90.30;;;;;;5065830;28;20247;-79
2022/11/14 00:53:26;;;;;;;29.23;15.83;;;10.60;90.30;;;;;;5063323;28;20222;-80
2022/11/14 00:55:56;;;;;;;23.30;15.43;;;10.60;90.30;;;;;;5068313;28;20194;-79
2022/11/14 00:58:24;;;;;;;35.57;17.17;;;10.60;90.30;;;;;;5067141;28;20610;-79
2022/11/14 01:00:53;;;;;;;33.50;18.23;;;10.60;90.40;;;;;;5077575;28;20226;-79
2022/11/14 01:03:22;;;;;;;36.10;16.43;;;10.50;90.30;;;;;;5084741;28;20950;-79
2022/11/14 01:05:52;;;;;;;35.90;18.87;;;10.50;90.30;;;;;;5087129;28;20190;-79
2022/11/14 01:08:20;;;;;;;38.93;18.77;;;10.50;90.30;;;;;;5088312;28;20669;-79
2022/11/14 01:10:50;;;;;;;34.40;18.57;;;10.50;90.40;;;;;;5092363;28;20198;-80
2022/11/14 01:13:20;;;;;;;33.50;18.07;;;10.50;90.40;;;;;;5093116;28;20225;-80
2022/11/14 01:15:49;;;;;;;37.33;20.43;;;10.40;90.40;;;;;;5090659;28;20232;-80
2022/11/14 01:18:19;;;;;;;33.90;18.60;;;10.40;90.40;;;;;;5095492;28;20266;-80
2022/11/14 01:20:49;;;;;;;28.37;17.53;;;10.40;90.50;;;;;;5094322;28;20654;-80
2022/11/14 01:23:17;;;;;;;32.97;17.97;;;10.40;90.50;;;;;;5091770;28;20239;-80
2022/11/14 01:25:46;;;;;;;33.60;18.00;;;10.40;90.50;;;;;;5089220;28;20225;-80
2022/11/14 01:28:17;;;;;;;36.73;19.37;;;10.40;90.60;;;;;;5091204;28;20190;-79
2022/11/14 01:30:47;;;;;;;38.83;19.53;;;10.40;90.60;;;;;;5089061;28;20283;-80
2022/11/14 01:33:15;;;;;;;34.33;18.83;;;10.40;90.90;;;;;;5093894;28;20715;-80
2022/11/14 01:35:43;;;;;;;37.27;18.67;;;10.30;90.90;;;;;;5092041;28;20193;-78
2022/11/14 01:38:13;;;;;;;30.73;17.97;;;10.30;91.00;;;;;;5089417;28;20245;-79
2022/11/14 01:40:42;;;;;;;38.90;17.87;;;10.30;91.00;;;;;;5091069;28;20228;-78
2022/11/14 01:43:28;;;;;;;34.03;18.63;;;10.20;91.10;;;;;;5092540;28;20209;-80
2022/11/14 01:46:01;;;;;;;42.30;19.73;;;10.30;91.20;;;;;;5089961;28;20197;-79
2022/11/14 01:48:38;;;;;;;39.80;19.93;;;10.30;91.20;;;;;;5087161;28;20182;-79
2022/11/14 01:51:18;;;;;;;34.93;18.43;;;10.30;91.40;;;;;;5092973;28;20766;-79
2022/11/14 01:53:49;;;;;;;35.83;19.57;;;10.20;91.70;;;;;;5093612;28;20224;-79
2022/11/14 01:56:22;;;;;;;35.23;18.80;;;10.20;91.60;;;;;;5091905;28;20734;-79
2022/11/14 01:58:54;;;;;;;41.43;19.03;;;10.30;91.70;;;;;;5092437;28;20194;-79
2022/11/14 02:01:24;;;;;;;37.60;19.77;;;10.30;91.80;;;;;;5091353;28;20253;-79
2022/11/14 02:03:55;;;;;;;39.47;21.53;;;10.30;92.20;;;;;;5092755;28;20201;-78
2022/11/14 02:06:27;;;;;;;40.00;20.90;;;10.30;92.20;;;;;;5094373;28;20532;-79
2022/11/14 02:08:58;;;;;;;37.10;20.47;;;10.30;92.20;;;;;;5097833;28;20194;-79
2022/11/14 02:11:30;;;;;;;37.83;20.67;;;10.20;92.60;;;;;;5092340;28;20221;-79
2022/11/14 02:13:59;;;;;;;39.30;20.23;;;10.30;92.50;;;;;;5101885;28;20557;-79
2022/11/14 02:16:29;;;;;;;39.30;20.43;;;10.30;92.50;;;;;;5096778;28;20368;-78
2022/11/14 02:18:57;;;;;;;37.53;19.83;;;10.30;92.60;;;;;;5096240;28;20194;-79
2022/11/14 02:21:27;;;;;;;39.57;20.80;;;10.40;92.50;;;;;;5103674;28;20247;-81
2022/11/14 02:23:55;;;;;;;35.53;18.90;;;10.40;92.40;;;;;;5100004;28;20197;-80
2022/11/14 02:26:23;;;;;;;38.80;21.50;;;10.40;92.40;;;;;;5101945;28;20194;-80
2022/11/14 02:28:52;;;;;;;39.17;20.53;;;10.40;92.30;;;;;;5099571;28;20193;-79
2022/11/14 02:31:20;;;;;;;38.50;21.43;;;10.50;92.30;;;;;;5101117;28;20556;-79
2022/11/14 02:33:48;;;;;;;35.27;19.63;;;10.50;92.20;;;;;;5099082;28;20213;-80
2022/11/14 02:36:16;;;;;;;36.30;20.67;;;10.50;92.10;;;;;;5103198;28;20205;-79
2022/11/14 02:38:46;;;;;;;39.00;19.30;;;10.50;92.10;;;;;;5103332;28;20213;-80
2022/11/14 02:41:15;;;;;;;37.60;19.77;;;10.50;92.00;;;;;;5098530;28;20202;-79
2022/11/14 02:43:43;;;;;;;36.97;19.80;;;10.50;92.00;;;;;;5102213;28;20839;-79
2022/11/14 02:46:11;;;;;;;35.10;19.50;;;10.60;92.00;;;;;;5099849;28;20198;-80
2022/11/14 02:48:39;;;;;;;39.20;19.20;;;10.60;91.90;;;;;;5102024;28;20190;-79
2022/11/14 02:51:08;;;;;;;43.57;19.27;;;10.60;92.20;;;;;;5101586;28;20262;-80
2022/11/14 02:53:36;;;;;;;40.27;21.20;;;10.70;91.90;;;;;;5096532;28;20193;-80
2022/11/14 02:56:06;;;;;;;39.60;20.10;;;10.70;91.80;;;;;;5096942;28;20205;-79
2022/11/14 02:58:34;;;;;;;36.17;18.90;;;10.70;91.80;;;;;;5100494;28;20316;-80
2022/11/14 03:01:03;;;;;;;43.13;19.73;;;10.70;91.70;;;;;;5097701;28;20762;-78
2022/11/14 03:03:48;;;;;;;43.97;20.10;;;10.70;91.70;;;;;;5096160;28;20209;-80
2022/11/14 03:06:16;;;;;;;40.87;19.60;;;10.70;91.70;;;;;;5096422;28;20229;-81
2022/11/14 03:08:44;;;;;;;38.70;19.33;;;10.70;91.70;;;;;;5095327;28;20662;-80
2022/11/14 03:11:14;;;;;;;38.13;18.53;;;10.80;91.80;;;;;;5100500;28;20242;-79
2022/11/14 03:13:42;;;;;;;38.97;18.47;;;10.70;91.70;;;;;;5093536;28;20262;-79
2022/11/14 03:16:12;;;;;;;38.93;18.47;;;10.70;91.70;;;;;;5097007;28;21058;-81
2022/11/14 03:18:41;;;;;;;39.80;18.53;;;10.70;91.70;;;;;;5095901;28;20210;-81
2022/11/14 03:21:11;;;;;;;34.57;17.77;;;10.80;91.60;;;;;;5098482;28;20195;-80
2022/11/14 03:23:40;;;;;;;40.07;17.40;;;10.70;91.60;;;;;;5091629;28;20218;-80
2022/11/14 03:26:10;;;;;;;40.00;18.27;;;10.80;91.50;;;;;;5083470;28;20319;-80
2022/11/14 03:28:41;;;;;;;44.43;18.47;;;10.70;91.70;;;;;;5095311;28;20255;-79
2022/11/14 03:31:12;;;;;;;42.45;21.40;;;10.70;91.60;;;;;;5094471;28;20434;-80
2022/11/14 03:33:40;;;;;;;40.20;18.60;;;10.70;91.70;;;;;;5091349;28;20198;-79
2022/11/14 03:36:09;;;;;;;39.30;17.87;;;10.60;91.70;;;;;;5103065;28;20205;-79
2022/11/14 03:38:37;;;;;;;37.80;16.93;;;10.60;91.70;;;;;;5094332;28;21419;-80
2022/11/14 03:41:06;;;;;;;36.47;18.10;;;10.60;91.80;;;;;;5093172;28;20216;-80
2022/11/14 03:43:35;;;;;;;40.50;18.53;;;10.60;91.90;;;;;;5095840;28;20209;-79
2022/11/14 03:46:05;;;;;;;36.42;17.42;;;10.60;91.80;;;;;;5099616;28;20090;-80
2022/11/14 03:48:33;;;;;;;34.80;16.70;;;10.70;91.80;;;;;;5097028;28;20200;-79
2022/11/14 03:51:01;;;;;;;40.17;18.07;;;10.60;91.70;;;;;;5099735;28;20224;-79
2022/11/14 03:53:29;;;;;;;36.80;17.03;;;10.70;91.80;;;;;;5092893;28;20254;-79
2022/11/14 03:55:58;;;;;;;39.70;17.50;;;10.70;91.80;;;;;;5100891;28;20210;-80
2022/11/14 03:58:26;;;;;;;39.27;16.97;;;10.70;91.70;;;;;;5094213;28;20684;-79
2022/11/14 04:00:55;;;;;;;39.23;18.70;;;10.80;91.70;;;;;;5092991;28;20225;-80
2022/11/14 04:03:25;;;;;;;37.80;16.90;;;10.70;91.70;;;;;;5100396;28;20250;-79
2022/11/14 04:05:54;;;;;;;43.37;17.33;;;10.80;91.60;;;;;;5099250;28;20202;-79
2022/11/14 04:08:22;;;;;;;37.13;17.10;;;10.80;91.60;;;;;;5104072;28;20299;-79
2022/11/14 04:10:50;;;;;;;40.27;16.53;;;10.70;91.60;;;;;;5100898;28;20255;-80
2022/11/14 04:13:19;;;;;;;38.73;17.10;;;10.70;91.60;;;;;;5103509;28;20193;-80
2022/11/14 04:15:47;;;;;;;37.60;17.03;;;10.70;91.70;;;;;;5100361;28;20588;-80
2022/11/14 04:18:15;;;;;;;37.63;17.63;;;10.70;91.70;;;;;;5102307;28;20236;-80
2022/11/14 04:20:45;;;;;;;39.03;16.97;;;10.70;91.70;;;;;;5093484;28;20197;-79
2022/11/14 04:23:13;;;;;;;36.10;15.97;;;10.80;91.70;;;;;;5093969;28;20190;-79
2022/11/14 04:25:43;;;;;;;36.03;17.30;;;10.80;91.70;;;;;;5093694;28;20194;-79
2022/11/14 04:28:12;;;;;;;35.43;15.97;;;10.80;91.70;;;;;;5104198;28;20200;-79
2022/11/14 04:30:41;;;;;;;39.77;17.30;;;10.80;91.70;;;;;;5101616;28;20197;-79
2022/11/14 04:33:09;;;;;;;37.07;16.87;;;10.80;91.70;;;;;;5098763;28;20270;-82
2022/11/14 04:35:37;;;;;;;34.17;16.60;;;10.80;91.70;;;;;;5107976;28;20199;-81
2022/11/14 04:38:07;;;;;;;34.90;16.70;;;10.80;91.70;;;;;;5103838;28;20213;-79
2022/11/14 04:40:35;;;;;;;41.60;17.63;;;10.90;91.70;;;;;;5102113;28;20178;-79
2022/11/14 04:43:04;;;;;;;39.67;16.40;;;10.90;91.80;;;;;;5085647;28;20221;-79
2022/11/14 04:45:32;;;;;;;40.20;18.83;;;10.90;91.80;;;;;;5100693;28;20606;-79
2022/11/14 04:48:01;;;;;;;39.45;19.05;;;10.90;91.80;;;;;;5109456;28;20461;-79
2022/11/14 04:50:29;;;;;;;39.10;17.17;;;11.00;91.90;;;;;;5111320;28;20638;-79
2022/11/14 04:52:57;;;;;;;37.87;15.53;;;11.00;92.20;;;;;;5112723;28;20185;-78
2022/11/14 04:55:27;;;;;;;41.27;17.33;;;11.00;91.80;;;;;;5114894;27;20194;-78
2022/11/14 04:57:56;;;;;;;42.40;17.37;;;11.00;91.70;;;;;;5114508;28;20182;-80
2022/11/14 05:00:27;;;;;;;37.78;18.92;;;11.10;91.70;;;;;;5107663;28;20436;-81
2022/11/14 05:02:55;;;;;;;37.77;15.97;;;11.10;91.90;;;;;;5107992;28;20245;-79
2022/11/14 05:05:23;;;;;;;37.43;17.07;;;11.10;91.90;;;;;;5098338;28;20222;-79
2022/11/14 05:07:52;;;;;;;35.77;16.53;;;11.10;91.90;;;;;;5105576;28;20189;-78
2022/11/14 05:10:20;;;;;;;39.07;16.17;;;11.10;91.90;;;;;;5103968;28;20198;-79
2022/11/14 05:12:53;;;;;;;39.73;17.93;;;11.20;91.90;;;;;;5106955;28;20194;-80
2022/11/14 05:15:22;;;;;;;33.80;16.47;;;11.20;91.90;;;;;;5099944;28;20219;-79
2022/11/14 05:17:50;;;;;;;35.03;17.13;;;11.20;91.90;;;;;;5098944;28;20380;-80
2022/11/14 05:20:18;;;;;;;36.63;16.27;;;11.20;91.90;;;;;;5102439;28;20222;-81
2022/11/14 05:22:46;;;;;;;36.83;17.13;;;11.20;91.90;;;;;;5099179;28;20202;-82
2022/11/14 05:25:15;;;;;;;41.33;16.67;;;11.30;91.90;;;;;;5101786;28;20197;-79
2022/11/14 05:27:43;;;;;;;38.30;16.83;;;11.20;91.90;;;;;;5093879;28;20677;-80
2022/11/14 05:30:13;;;;;;;34.63;15.67;;;11.30;91.90;;;;;;5097858;28;20297;-80
2022/11/14 05:32:41;;;;;;;36.10;17.43;;;11.30;91.90;;;;;;5092477;28;20209;-80
2022/11/14 05:35:10;;;;;;;36.43;16.90;;;11.30;91.90;;;;;;5096298;28;20258;-80
2022/11/14 05:37:38;;;;;;;37.90;17.97;;;11.40;91.90;;;;;;5096204;28;20233;-79
2022/11/14 05:40:07;;;;;;;42.40;17.23;;;11.40;91.90;;;;;;5098230;28;20266;-80
2022/11/14 05:42:35;;;;;;;35.10;16.97;;;11.40;91.90;;;;;;5103726;28;20197;-80
2022/11/14 05:45:04;;;;;;;37.43;17.47;;;11.40;91.90;;;;;;5095414;28;20194;-82
2022/11/14 05:47:34;;;;;;;38.33;16.53;;;11.40;92.00;;;;;;5089722;28;20243;-80
2022/11/14 05:50:02;;;;;;;36.80;16.60;;;11.40;91.90;;;;;;5094674;28;20186;-81
2022/11/14 05:52:31;;;;;;;36.30;16.30;;;11.50;91.90;;;;;;5096109;28;20247;-80
2022/11/14 05:54:59;;;;;;;38.20;16.60;;;11.40;91.90;;;;;;5095437;28;20189;-80
2022/11/14 05:57:28;;;;;;;34.27;16.70;;;11.50;91.90;;;;;;5092685;28;20233;-83
2022/11/14 05:59:56;;;;;;;34.10;15.90;;;11.50;91.90;;;;;;5087642;28;20715;-80
2022/11/14 06:02:24;;;;;;;33.27;16.77;;;11.50;91.90;;;;;;5086132;28;20190;-79
2022/11/14 06:04:54;;;;;;;34.70;16.10;;;11.50;91.80;;;;;;5087348;28;20276;-80
2022/11/14 06:07:22;;;;;;;37.10;15.93;;;11.60;91.80;;;;;;5090120;28;20715;-81
2022/11/14 06:09:51;;;;;;;32.03;16.23;;;11.60;91.80;;;;;;5089045;28;20288;-80
2022/11/14 06:12:19;;;;;;;39.00;16.97;;;11.70;91.80;;;;;;5093765;28;20248;-79
2022/11/14 06:14:47;;;;;;;36.57;17.67;;;11.70;91.80;;;;;;5087767;28;20267;-81
2022/11/14 06:17:15;;;;;;;36.93;16.07;;;11.70;91.70;;;;;;5088805;28;20226;-82
2022/11/14 06:19:44;;;;;;;31.73;16.27;;;11.80;91.70;;;;;;5089656;28;20248;-81
2022/11/14 06:22:13;;;;;;;38.50;17.60;;;11.80;91.70;;;;;;5090181;28;20228;-81
2022/11/14 06:24:41;;;;;;;35.50;17.03;;;11.80;91.60;;;;;;5091794;28;20197;-81
2022/11/14 06:27:10;;;;;;;37.20;15.53;;;11.80;91.60;;;;;;5087522;28;20662;-80
2022/11/14 06:29:38;;;;;;;40.27;16.40;;;11.90;91.70;;;;;;5084942;28;20197;-79
2022/11/14 06:32:07;;;;;;;32.83;16.60;;;11.90;91.60;;;;;;5085447;28;20270;-78
2022/11/14 06:34:35;;;;;;;41.27;17.53;;;11.90;91.60;;;;;;5089408;28;20715;-80
2022/11/14 06:37:04;;;;;;;38.87;16.73;;;12.00;91.60;;;;;;5091560;28;20247;-82
2022/11/14 06:39:34;;;;;;;38.10;16.03;;;12.00;91.50;;;;;;5091959;28;20218;-80
2022/11/14 06:42:03;;;;;;;34.97;16.57;;;12.10;91.50;;;;;;5091180;28;20232;-80
2022/11/14 06:44:31;;;;;;;37.03;17.10;;;12.10;91.50;;;;;;5091202;28;20641;-81
2022/11/14 06:46:59;;;;;;;35.20;16.97;;;12.10;91.50;;;;;;5088374;28;20251;-81
2022/11/14 06:49:27;;;;;;;30.50;15.33;;;12.20;91.50;;;;;;5086281;28;20194;-80
2022/11/14 06:51:56;;;;;;;36.17;17.07;;;12.20;91.40;;;;;;5091014;28;20190;-82
2022/11/14 06:54:24;;;;;;;34.57;17.07;;;12.30;91.40;;;;;;5092353;28;20731;-78
2022/11/14 06:56:54;;;;;;;34.50;16.30;;;12.30;91.40;;;;;;5094441;28;20192;-80
2022/11/14 06:59:22;;;;;;;39.13;16.97;;;12.30;91.40;;;;;;5085727;28;20244;-82
2022/11/14 07:01:50;;;;;;;34.17;17.60;;;12.30;91.30;;;;;;5087813;28;20251;-80
2022/11/14 07:04:18;;;;;;;38.17;17.07;;;12.40;91.40;;;;;;5089937;28;20667;-80
2022/11/14 07:06:47;;;;;;;40.07;17.57;;;12.40;91.40;;;;;;5086148;28;20197;-81
2022/11/14 07:09:15;;;;;;;37.43;17.00;;;12.40;91.40;;;;;;5091529;28;20217;-81
2022/11/14 07:11:45;;;;;;;36.17;17.37;;;12.50;91.40;;;;;;5085457;28;20276;-80
2022/11/14 07:14:15;;;;;;;34.87;16.60;;;12.50;91.30;;;;;;5087651;28;20603;-80
2022/11/14 07:16:43;;;;;;;42.70;19.77;;;12.60;91.30;;;;;;5084078;28;20434;-82
2022/11/14 07:19:12;;;;;;;39.00;16.73;;;12.60;91.30;;;;;;5091483;28;20450;-78
2022/11/14 07:21:40;;;;;;;35.57;17.50;;;12.60;91.20;;;;;;5089068;28;20197;-79
2022/11/14 07:24:10;;;;;;;32.70;16.13;;;12.60;91.00;;;;;;5088485;28;20194;-80
2022/11/14 07:26:38;;;;;;;35.90;17.03;;;12.60;90.90;;;;;;5090763;28;20239;-80
2022/11/14 07:29:06;;;;;;;40.47;17.20;;;12.70;90.90;;;;;;5093458;28;20193;-80
2022/11/14 07:31:36;;;;;;;38.53;18.17;;;12.70;90.90;;;;;;5090754;28;20254;-81
2022/11/14 07:34:04;;;;;;;41.67;18.70;;;12.70;90.80;;;;;;5091956;28;20596;-80
2022/11/14 07:36:33;;;;;;;38.33;17.63;;;12.80;90.70;;;;;;5094470;28;20715;-79
2022/11/14 07:39:01;;;;;;;38.77;17.83;;;12.80;90.70;;;;;;5081373;28;20232;-80
2022/11/14 07:41:29;;;;;;;42.57;18.77;;;12.80;90.70;;;;;;5083439;28;20249;-80
2022/11/14 07:43:57;;;;;;;39.67;20.45;;;12.90;90.70;;;;;;5092466;28;20508;-79
2022/11/14 07:46:26;;;;;;;38.23;17.87;;;12.90;91.20;;;;;;5090850;28;20213;-78
2022/11/14 07:48:55;;;;;;;44.23;18.50;;;13.00;90.80;;;;;;5090474;28;20243;-79
2022/11/14 07:51:24;;;;;;;42.53;19.90;;;13.00;90.70;;;;;;5092135;28;20216;-78
2022/11/14 07:53:53;;;;;;;37.87;18.83;;;13.00;90.60;;;;;;5088150;28;20541;-79
2022/11/14 07:56:21;;;;;;;39.17;18.37;;;13.00;90.40;;;;;;5090583;28;20197;-81
2022/11/14 07:58:49;;;;;;;36.00;17.93;;;13.00;90.40;;;;;;5092051;28;20201;-81
2022/11/14 08:01:17;;;;;;;37.50;17.90;;;13.00;90.80;;;;;;5094170;28;20736;-82
2022/11/14 08:03:46;;;;;;;39.73;18.67;;;13.10;90.50;;;;;;5087908;28;20197;-80
2022/11/14 08:06:16;;;;;;;37.37;17.50;;;13.10;90.30;;;;;;5087957;28;20201;-79
2022/11/14 08:08:45;;;;;;;43.00;19.13;;;13.30;90.40;;;;;;5087084;28;20479;-80
2022/11/14 08:11:13;;;;;;;39.43;18.10;;;13.30;90.30;;;;;;5095415;28;20554;-80
2022/11/14 08:14:01;;;;;;;35.60;17.10;;;13.40;90.40;;;;;;5094189;28;20217;-81
2022/11/14 08:16:29;;;;;;;35.70;17.20;;;13.50;90.30;;;;;;5091903;28;20251;-79
2022/11/14 08:18:58;;;;;;;33.70;17.40;;;13.50;90.20;;;;;;5092581;28;20668;-80
2022/11/14 08:21:27;;;;;;;37.63;18.07;;;13.50;90.10;;;;;;5091875;28;20213;-79
2022/11/14 08:23:55;;;;;;;35.77;17.23;;;13.60;89.80;;;;;;5087103;28;20563;-79
2022/11/14 08:26:24;;;;;;;42.17;18.73;;;13.60;89.90;;;;;;5088331;28;20225;-80
2022/11/14 08:28:58;;;;;;;35.90;16.80;;;13.70;89.70;;;;;;5091018;28;20551;-81
2022/11/14 08:31:27;;;;;;;35.30;17.83;;;13.70;89.50;;;;;;5093612;28;20401;-82
2022/11/14 08:33:55;;;;;;;36.80;17.37;;;13.80;89.20;;;;;;5087667;28;20206;-80
2022/11/14 08:36:23;;;;;;;33.80;16.63;;;13.80;89.10;;;;;;5085634;28;20193;-81
2022/11/14 08:38:59;;;;;;;31.90;15.67;;;13.80;89.20;;;;;;5090825;28;20208;-82
2022/11/14 08:41:29;;;;;;;40.33;16.67;;;13.90;89.20;;;;;;5094906;28;20276;-81
2022/11/14 08:43:57;;;;;;;39.80;17.58;;;13.90;89.10;;;;;;5092097;28;20791;-80
2022/11/14 08:46:26;;;;;;;36.63;16.97;;;14.00;89.30;;;;;;5099929;28;20254;-81
2022/11/14 08:48:54;;;;;;;31.10;14.63;;;14.00;89.10;;;;;;5101479;28;20193;-80
2022/11/14 08:51:25;;;;;;;36.53;17.03;;;14.10;88.90;;;;;;5101967;28;20695;-83
2022/11/14 08:53:55;;;;;;;32.10;15.77;;;14.20;88.70;;;;;;5108008;28;20215;-81
2022/11/14 08:56:23;;;;;;;34.47;15.80;;;14.20;88.40;;;;;;5103636;28;20212;-85
2022/11/14 08:58:52;;;;;;;36.07;15.43;;;14.20;87.80;;;;;;5102241;28;20201;-82
2022/11/14 09:01:20;;;;;;;31.30;16.03;;;14.20;87.30;;;;;;5101484;28;20634;-85
2022/11/14 09:03:48;;;;;;;35.07;16.67;;;14.30;87.50;;;;;;5103691;28;20678;-81
2022/11/14 09:06:21;;;;;;;37.77;16.13;;;14.30;87.30;;;;;;5104305;28;20190;-79
2022/11/14 09:08:49;;;;;;;35.63;17.17;;;14.30;87.40;;;;;;5107245;28;20189;-83
2022/11/14 09:11:19;;;;;;;35.70;15.70;;;14.40;87.50;;;;;;5104659;28;20287;-82
2022/11/14 09:13:47;;;;;;;38.73;16.27;;;14.40;87.10;;;;;;5102029;28;20539;-83
2022/11/14 09:16:15;;;;;;;38.03;17.47;;;14.40;86.80;;;;;;5105396;28;20666;-81
2022/11/14 09:18:43;;;;;;;35.67;18.20;;;14.50;86.70;;;;;;5103781;28;20202;-81
2022/11/14 09:21:12;;;;;;;44.27;20.60;;;14.50;86.80;;;;;;5103315;28;20218;-82
2022/11/14 09:23:40;;;;;;;41.70;18.83;;;14.50;86.40;;;;;;5095949;28;20193;-81
2022/11/14 09:26:10;;;;;;;33.30;16.63;;;14.50;86.20;;;;;;5101834;28;20259;-82
2022/11/14 09:28:40;;;;;;;36.80;17.87;;;14.50;85.80;;;;;;5100311;28;20221;-81
2022/11/14 09:31:10;;;;;;;34.13;16.50;;;14.60;85.80;;;;;;5106586;28;20205;-83
2022/11/14 09:33:39;;;;;;;34.60;16.73;;;14.60;85.90;;;;;;5105430;28;20718;-85
2022/11/14 09:36:10;;;;;;;40.07;17.07;;;14.60;85.70;;;;;;5107904;28;20205;-80
2022/11/14 09:38:39;;;;;;;33.93;16.00;;;14.60;85.60;;;;;;5109200;28;20223;-83
2022/11/14 09:41:23;;;;;;;36.20;16.60;;;14.60;85.60;;;;;;5106840;28;20214;-81
2022/11/14 09:44:32;;;;;;;33.87;15.10;;;14.70;85.60;;;;;;5092492;28;20202;-80
2022/11/14 09:47:23;;;;;;;37.20;16.73;;;14.70;84.70;;;;;;5091157;28;20225;-78
2022/11/14 09:49:55;;;;;;;30.60;15.03;;;14.70;84.60;;;;;;5091547;28;20198;-80
2022/11/14 09:52:36;;;;;;;36.93;15.30;;;14.70;84.10;;;;;;5097011;28;20217;-78
2022/11/14 09:55:12;;;;;;;34.27;14.80;;;14.70;83.90;;;;;;5090195;28;20190;-79
2022/11/14 09:57:43;;;;;;;37.47;15.37;;;14.70;84.10;;;;;;5087683;28;20221;-77
2022/11/14 10:00:19;;;;;;;30.77;13.73;;;14.70;84.40;;;;;;5091899;28;20305;-77
2022/11/14 10:03:03;;;;;;;34.37;16.07;;;14.70;83.90;;;;;;5089136;28;20190;-77
2022/11/14 10:05:49;;;;;;;33.23;15.40;;;14.80;84.00;;;;;;5094940;28;20220;-76
2022/11/14 10:08:30;;;;;;;32.17;14.23;;;14.80;84.00;;;;;;5092449;28;20232;-80
2022/11/14 10:11:03;;;;;;;32.13;15.20;;;14.80;83.60;;;;;;5094626;28;20217;-79
2022/11/14 10:13:53;;;;;;;34.60;16.83;;;14.90;83.90;;;;;;5093711;28;20225;-80
2022/11/14 10:16:35;;;;;;;31.67;14.73;;;14.90;83.60;;;;;;5090163;28;20198;-79
2022/11/14 10:19:16;;;;;;;35.63;14.43;;;14.90;84.30;;;;;;5089477;28;20266;-78
2022/11/14 10:22:01;;;;;;;35.23;15.03;;;14.90;83.10;;;;;;5087843;28;20697;-78
2022/11/14 10:25:07;;;;;;;35.60;14.33;;;14.80;83.10;;;;;;5073489;28;20851;-80
2022/11/14 10:27:45;;;;;;;33.20;14.17;;;14.90;82.70;;;;;;5085451;28;20205;-80
2022/11/14 10:30:35;;;;;;;31.03;13.80;;;14.80;82.90;;;;;;5084965;28;20217;-79
2022/11/14 10:33:23;;;;;;;31.77;15.17;;;14.90;83.10;;;;;;5084167;28;20750;-80
2022/11/14 10:35:59;;;;;;;30.60;13.27;;;14.90;83.00;;;;;;5096558;28;20239;-80
2022/11/14 10:38:33;;;;;;;32.93;13.50;;;14.90;82.80;;;;;;5093320;28;20190;-79
2022/11/14 10:41:04;;;;;;;32.83;15.40;;;14.90;83.10;;;;;;5092305;28;20692;-79
2022/11/14 10:43:39;;;;;;;33.93;15.27;;;14.90;82.80;;;;;;5090692;28;20251;-77
2022/11/14 10:46:13;;;;;;;31.88;15.55;;;14.90;82.30;;;;;;5093216;28;20453;-79
2022/11/14 10:48:46;;;;;;;34.73;14.10;;;14.80;82.30;;;;;;5105974;28;20198;-79
2022/11/14 10:51:22;;;;;;;29.97;13.47;;;14.90;82.40;;;;;;5098185;28;20182;-80
2022/11/14 10:53:54;;;;;;;31.83;13.93;;;14.90;82.50;;;;;;5089353;28;20271;-79
2022/11/14 10:56:22;;;;;;;32.83;16.07;;;14.90;82.60;;;;;;5089389;28;20602;-79
2022/11/14 10:58:51;;;;;;;33.60;16.00;;;14.80;83.30;;;;;;5092156;28;20258;-78
2022/11/14 11:01:37;;;;;;;30.27;14.00;;;14.90;82.40;;;;;;5089877;28;20359;-79
2022/11/14 11:04:22;;;;;;;28.37;14.97;;;14.90;82.40;;;;;;5092012;28;20290;-80
2022/11/14 11:06:52;;;;;;;31.53;14.33;;;14.90;82.20;;;;;;5092904;28;20197;-80
2022/11/14 11:12:16;;;;;;;29.87;13.10;;;14.90;82.10;;;;;;5090020;28;20255;-81
2022/11/14 11:14:46;;;;;;;30.73;12.43;;;14.90;82.00;;;;;;5090862;28;20194;-81
2022/11/14 11:17:20;;;;;;;27.93;13.57;;;14.90;82.30;;;;;;5092638;28;20667;-81
2022/11/14 11:19:50;;;;;;;31.10;12.93;;;14.90;82.10;;;;;;5091298;28;20188;-80
2022/11/14 11:22:28;;;;;;;31.17;12.23;;;14.90;82.30;;;;;;5088319;28;20213;-82
2022/11/14 11:24:56;;;;;;;29.27;13.77;;;14.90;82.10;;;;;;5089723;28;20920;-80
2022/11/14 11:27:26;;;;;;;31.67;12.60;;;14.90;81.90;;;;;;5094407;28;20240;-81
2022/11/14 11:30:05;;;;;;;27.50;12.27;;;14.90;81.90;;;;;;5093588;28;20194;-80
2022/11/14 11:32:33;;;;;;;31.43;13.10;;;14.90;81.90;;;;;;5097047;28;20232;-81
2022/11/14 11:35:10;;;;;;;28.17;12.43;;;14.90;81.80;;;;;;5098986;28;20198;-81
2022/11/14 11:37:46;;;;;;;27.70;11.83;;;14.90;81.70;;;;;;5097850;28;20242;-80
2022/11/14 11:40:22;;;;;;;29.17;12.60;;;14.90;81.70;;;;;;5094491;28;20566;-79
2022/11/14 11:42:58;;;;;;;27.27;11.93;;;14.90;81.90;;;;;;5101101;28;20205;-80
2022/11/14 11:45:49;;;;;;;26.13;12.00;;;14.90;81.50;;;;;;5089973;28;20201;-78
2022/11/14 11:48:19;;;;;;;27.63;11.70;;;14.90;81.10;;;;;;5086675;28;20197;-80
2022/11/14 11:50:50;;;;;;;28.67;11.87;;;14.90;81.00;;;;;;5093812;28;20186;-80
2022/11/14 11:53:24;;;;;;;25.97;11.23;;;14.80;80.50;;;;;;5095149;28;20185;-80
2022/11/14 11:55:59;;;;;;;23.57;11.87;;;14.80;80.60;;;;;;5095288;28;20189;-80
2022/11/14 11:58:32;;;;;;;28.70;12.70;;;14.80;80.90;;;;;;5083714;28;20190;-82
2022/11/14 12:01:01;;;;;;;28.83;12.47;;;14.80;80.90;;;;;;5092034;28;20601;-80
2022/11/14 12:03:29;;;;;;;29.83;13.47;;;14.80;81.10;;;;;;5093531;28;20255;-81
2022/11/14 12:06:11;;;;;;;29.67;12.80;;;14.80;81.10;;;;;;5091382;28;20296;-79
2022/11/14 12:08:50;;;;;;;26.43;12.80;;;14.80;81.30;;;;;;5089378;28;20225;-79
2022/11/14 12:11:22;;;;;;;28.87;12.33;;;14.80;81.30;;;;;;5087249;28;20220;-79
2022/11/14 12:14:29;;;;;;;28.70;13.17;;;14.80;81.50;;;;;;5086420;28;20193;-80
2022/11/14 12:17:23;;;;;;;27.57;12.33;;;14.90;81.30;;;;;;5077833;28;20723;-80
2022/11/14 12:20:08;;;;;;;25.73;12.70;;;14.90;81.30;;;;;;5072040;28;20251;-81
2022/11/14 12:22:56;;;;;;;31.75;14.40;;;14.90;80.90;;;;;;5089123;28;20848;-80
2022/11/14 12:25:42;;;;;;;28.20;12.97;;;14.90;80.90;;;;;;5089236;28;20284;-80
2022/11/14 12:28:26;;;;;;;26.93;12.47;;;14.90;81.10;;;;;;5090634;28;20193;-80
2022/11/14 12:30:59;;;;;;;30.37;13.50;;;14.80;80.90;;;;;;5086690;28;20202;-81
2022/11/14 12:33:31;;;;;;;27.53;12.23;;;14.80;80.90;;;;;;5088276;28;20213;-81
2022/11/14 12:36:02;;;;;;;31.37;12.30;;;14.80;80.60;;;;;;5089203;28;20250;-79
2022/11/14 12:38:40;;;;;;;31.47;14.10;;;14.80;80.30;;;;;;5091224;28;20212;-79
2022/11/14 12:41:10;;;;;;;27.20;12.73;;;14.80;80.40;;;;;;5091968;28;20266;-79
2022/11/14 12:43:42;;;;;;;29.60;13.67;;;14.80;80.10;;;;;;5094464;28;20248;-79
2022/11/14 12:46:13;;;;;;;33.07;14.10;;;14.70;80.30;;;;;;5084711;28;20258;-80
2022/11/14 12:48:42;;;;;;;35.37;14.87;;;14.70;80.50;;;;;;5081913;28;20279;-80
2022/11/14 12:51:50;;;;;;;32.57;13.90;;;14.70;80.80;;;;;;5087897;28;20197;-79